Airfield :
LOGIN :

Register | Disclaimer

   EN    FR    IT 

 










Legend :    VFR   Marginal VFR   IFR   Intensive IFR   Very Intensive IFR
Visi :
Ceiling :
>= 8 km
>= 3000ft
5 to 8 km
1000 to 3000 ft
1500m to 5 km
500 to 1000 ft
800 to 1500m
200 to 500 ft
< 800m
< 200 ft
Symbols :   Thunderstorms  Fog  Heavy snow  Heavy precipitations  Wind > 20 kt
SIGMETs :     Misc.  Thunderstorms  Icing  Turbulence  Mountain Waves  Volcanic Ashes







- Airport Elevation : 12 ft
- IATA code : NCE
- Download approach charts


LFMN - Nice

CURRENT METAR :
  • 172230Z 32008KT CAVOK 07/04 Q1009 NOSIG

EXPIRED METARs :
  • 172200Z 30004KT 260V320 CAVOK 07/05 Q1009 NOSIG
  • 172130Z 32007KT CAVOK 07/05 Q1009 NOSIG
  • 172100Z 32007KT CAVOK 07/05 Q1009 NOSIG
  • 172030Z 29005KT 270V330 CAVOK 08/05 Q1009 NOSIG
  • 172000Z 32008KT CAVOK 08/06 Q1009 NOSIG

TAF TAF LFMN
Valid from the 17 at 21:00 until the 19 at 03:00 UTC


172000Z 1721/1903 33010KT 9999 FEW030
PROB30
TEMPO 1802/1808 BKN020
BECMG 1811/1813 24010KT CAVOK
BECMG 1816/1818 33010KT
ATIS : +33 4 93 17 21 16
No reported NOTAMs for that airfield.
1 SIGMET reported for the Marseille FIR (LFMM) :
 
Severe mountain waves
LFMM SIGMET 1 VALID 180000/180400 LFPW
LFMM MARSEILLE FIR/UIR SEV MTW FCST WI N4315 E00945 - N4115 E00945 - N4115 E00900 - N4300 E00845 - N4315 E00945 SFC/FL200 STNR INTSF=



MET'MAP, your aeronautical weather chart ! - Copyright ORBIFLY December 2007 - Disclaimer

ORBIFLY MET'MAP TEAM :

Programming & Development : Alexandra Zaïnal
Concept & Development : Baudouin d'Aumeries
Co-Development & Prog : Marc-Olivier Méhu
Technical & hardware support : Manuel Goepfert

Contact : metmap@orbifly.com




SOURCES & CREDITS :

   NOAA